sensor_id;sensor_type;location;lat;lon;timestamp;P1;durP1;ratioP1;P2;durP2;ratioP2
23406;SDS011;11876;53.438;18.942;2023-02-28T00:01:49;38.88;;;20.25;;
23406;SDS011;11876;53.438;18.942;2023-02-28T00:04:51;42.53;;;19.65;;
23406;SDS011;11876;53.438;18.942;2023-02-28T00:08:02;41.60;;;21.95;;
23406;SDS011;11876;53.438;18.942;2023-02-28T00:11:06;46.97;;;21.45;;
23406;SDS011;11876;53.438;18.942;2023-02-28T00:14:11;47.15;;;21.23;;
23406;SDS011;11876;53.438;18.942;2023-02-28T00:17:13;41.30;;;19.17;;
23406;SDS011;11876;53.438;18.942;2023-02-28T00:20:17;33.33;;;16.73;;
23406;SDS011;11876;53.438;18.942;2023-02-28T00:23:20;33.00;;;15.50;;
23406;SDS011;11876;53.438;18.942;2023-02-28T00:26:23;26.80;;;14.43;;
23406;SDS011;11876;53.438;18.942;2023-02-28T00:29:25;22.58;;;12.93;;
23406;SDS011;11876;53.438;18.942;2023-02-28T00:32:27;22.83;;;13.02;;
23406;SDS011;11876;53.438;18.942;2023-02-28T00:35:31;19.30;;;10.35;;
23406;SDS011;11876;53.438;18.942;2023-02-28T00:38:33;26.98;;;13.73;;
23406;SDS011;11876;53.438;18.942;2023-02-28T00:41:36;27.50;;;14.30;;
23406;SDS011;11876;53.438;18.942;2023-02-28T00:44:38;45.58;;;24.13;;
23406;SDS011;11876;53.438;18.942;2023-02-28T00:47:40;62.00;;;29.10;;
23406;SDS011;11876;53.438;18.942;2023-02-28T00:50:43;56.85;;;30.95;;
23406;SDS011;11876;53.438;18.942;2023-02-28T00:53:45;70.28;;;35.17;;
23406;SDS011;11876;53.438;18.942;2023-02-28T00:56:48;52.42;;;25.85;;
23406;SDS011;11876;53.438;18.942;2023-02-28T00:59:50;58.20;;;28.55;;
23406;SDS011;11876;53.438;18.942;2023-02-28T01:02:55;48.45;;;24.77;;
23406;SDS011;11876;53.438;18.942;2023-02-28T01:05:58;41.17;;;22.70;;
23406;SDS011;11876;53.438;18.942;2023-02-28T01:09:01;42.60;;;23.08;;
23406;SDS011;11876;53.438;18.942;2023-02-28T01:12:04;42.15;;;24.63;;
23406;SDS011;11876;53.438;18.942;2023-02-28T01:15:09;33.97;;;17.67;;
23406;SDS011;11876;53.438;18.942;2023-02-28T01:18:12;56.10;;;28.35;;
23406;SDS011;11876;53.438;18.942;2023-02-28T01:21:16;84.85;;;34.72;;
23406;SDS011;11876;53.438;18.942;2023-02-28T01:24:20;63.95;;;30.15;;
23406;SDS011;11876;53.438;18.942;2023-02-28T01:27:22;61.05;;;30.40;;
23406;SDS011;11876;53.438;18.942;2023-02-28T01:30:26;67.75;;;30.90;;
23406;SDS011;11876;53.438;18.942;2023-02-28T01:33:29;48.00;;;24.63;;
23406;SDS011;11876;53.438;18.942;2023-02-28T01:36:33;61.58;;;29.58;;
23406;SDS011;11876;53.438;18.942;2023-02-28T01:39:35;60.15;;;33.38;;
23406;SDS011;11876;53.438;18.942;2023-02-28T01:42:38;48.78;;;27.02;;
23406;SDS011;11876;53.438;18.942;2023-02-28T01:45:40;44.25;;;24.90;;
23406;SDS011;11876;53.438;18.942;2023-02-28T01:52:06;34.88;;;19.00;;
23406;SDS011;11876;53.438;18.942;2023-02-28T01:55:08;36.20;;;21.25;;
23406;SDS011;11876;53.438;18.942;2023-02-28T01:58:12;35.40;;;20.33;;
23406;SDS011;11876;53.438;18.942;2023-02-28T02:01:15;23.47;;;12.70;;
23406;SDS011;11876;53.438;18.942;2023-02-28T02:04:23;34.47;;;18.52;;
23406;SDS011;11876;53.438;18.942;2023-02-28T02:07:29;33.30;;;18.15;;
23406;SDS011;11876;53.438;18.942;2023-02-28T02:10:41;35.53;;;16.65;;
23406;SDS011;11876;53.438;18.942;2023-02-28T02:27:30;35.67;;;18.83;;
23406;SDS011;11876;53.438;18.942;2023-02-28T02:31:06;33.15;;;18.95;;
23406;SDS011;11876;53.438;18.942;2023-02-28T02:37:49;32.38;;;18.15;;
23406;SDS011;11876;53.438;18.942;2023-02-28T02:41:23;33.92;;;16.95;;
23406;SDS011;11876;53.438;18.942;2023-02-28T02:47:52;31.95;;;17.35;;
23406;SDS011;11876;53.438;18.942;2023-02-28T02:50:57;34.85;;;19.08;;
23406;SDS011;11876;53.438;18.942;2023-02-28T02:57:15;33.22;;;19.00;;
23406;SDS011;11876;53.438;18.942;2023-02-28T03:00:27;37.20;;;19.05;;
23406;SDS011;11876;53.438;18.942;2023-02-28T03:03:32;41.97;;;21.73;;
23406;SDS011;11876;53.438;18.942;2023-02-28T03:09:38;40.38;;;20.08;;
23406;SDS011;11876;53.438;18.942;2023-02-28T03:12:42;26.38;;;14.38;;
23406;SDS011;11876;53.438;18.942;2023-02-28T03:22:32;37.83;;;19.98;;
23406;SDS011;11876;53.438;18.942;2023-02-28T03:28:51;36.15;;;20.20;;
23406;SDS011;11876;53.438;18.942;2023-02-28T03:35:24;31.83;;;18.77;;
23406;SDS011;11876;53.438;18.942;2023-02-28T03:41:50;42.75;;;21.60;;
23406;SDS011;11876;53.438;18.942;2023-02-28T03:44:58;44.30;;;23.45;;
23406;SDS011;11876;53.438;18.942;2023-02-28T03:48:12;41.28;;;23.88;;
23406;SDS011;11876;53.438;18.942;2023-02-28T03:51:18;42.03;;;23.40;;
23406;SDS011;11876;53.438;18.942;2023-02-28T03:54:25;36.80;;;20.05;;
23406;SDS011;11876;53.438;18.942;2023-02-28T04:00:44;47.10;;;25.27;;
23406;SDS011;11876;53.438;18.942;2023-02-28T04:03:49;40.47;;;25.27;;
23406;SDS011;11876;53.438;18.942;2023-02-28T04:06:53;44.63;;;24.50;;
23406;SDS011;11876;53.438;18.942;2023-02-28T04:10:04;41.60;;;24.63;;
23406;SDS011;11876;53.438;18.942;2023-02-28T04:13:07;52.60;;;27.45;;
23406;SDS011;11876;53.438;18.942;2023-02-28T04:16:09;52.65;;;27.50;;
23406;SDS011;11876;53.438;18.942;2023-02-28T04:19:24;42.88;;;24.17;;
23406;SDS011;11876;53.438;18.942;2023-02-28T04:22:27;42.90;;;24.80;;
23406;SDS011;11876;53.438;18.942;2023-02-28T04:25:29;41.72;;;23.33;;
23406;SDS011;11876;53.438;18.942;2023-02-28T04:28:32;40.08;;;23.50;;
23406;SDS011;11876;53.438;18.942;2023-02-28T04:31:35;41.17;;;23.17;;
23406;SDS011;11876;53.438;18.942;2023-02-28T04:34:37;37.42;;;22.88;;
23406;SDS011;11876;53.438;18.942;2023-02-28T04:37:40;38.35;;;23.52;;
23406;SDS011;11876;53.438;18.942;2023-02-28T04:40:42;41.72;;;23.08;;
23406;SDS011;11876;53.438;18.942;2023-02-28T04:43:45;42.75;;;24.23;;
23406;SDS011;11876;53.438;18.942;2023-02-28T04:46:47;36.90;;;21.02;;
23406;SDS011;11876;53.438;18.942;2023-02-28T04:49:50;46.80;;;24.02;;
23406;SDS011;11876;53.438;18.942;2023-02-28T04:52:53;41.13;;;23.27;;
23406;SDS011;11876;53.438;18.942;2023-02-28T04:55:56;34.30;;;19.13;;
23406;SDS011;11876;53.438;18.942;2023-02-28T04:58:59;36.05;;;19.25;;
23406;SDS011;11876;53.438;18.942;2023-02-28T05:02:01;37.17;;;20.13;;
23406;SDS011;11876;53.438;18.942;2023-02-28T05:05:08;39.13;;;20.48;;
23406;SDS011;11876;53.438;18.942;2023-02-28T05:08:11;40.92;;;22.65;;
23406;SDS011;11876;53.438;18.942;2023-02-28T05:11:15;39.17;;;21.05;;
23406;SDS011;11876;53.438;18.942;2023-02-28T05:14:28;42.13;;;22.48;;
23406;SDS011;11876;53.438;18.942;2023-02-28T05:17:30;45.88;;;25.60;;
23406;SDS011;11876;53.438;18.942;2023-02-28T05:20:33;53.13;;;29.83;;
23406;SDS011;11876;53.438;18.942;2023-02-28T05:23:35;51.85;;;29.65;;
23406;SDS011;11876;53.438;18.942;2023-02-28T05:26:39;82.55;;;39.05;;
23406;SDS011;11876;53.438;18.942;2023-02-28T05:29:42;76.53;;;36.53;;
23406;SDS011;11876;53.438;18.942;2023-02-28T05:32:49;57.35;;;31.50;;
23406;SDS011;11876;53.438;18.942;2023-02-28T05:35:52;59.33;;;30.42;;
23406;SDS011;11876;53.438;18.942;2023-02-28T05:38:54;57.90;;;30.50;;
23406;SDS011;11876;53.438;18.942;2023-02-28T05:41:57;70.88;;;35.28;;
23406;SDS011;11876;53.438;18.942;2023-02-28T05:44:59;61.85;;;32.38;;
23406;SDS011;11876;53.438;18.942;2023-02-28T05:48:02;44.95;;;23.00;;
23406;SDS011;11876;53.438;18.942;2023-02-28T05:51:05;55.78;;;29.58;;
23406;SDS011;11876;53.438;18.942;2023-02-28T05:54:08;55.20;;;26.38;;
23406;SDS011;11876;53.438;18.942;2023-02-28T05:57:14;51.38;;;27.52;;
23406;SDS011;11876;53.438;18.942;2023-02-28T06:00:25;53.30;;;27.27;;
23406;SDS011;11876;53.438;18.942;2023-02-28T06:03:27;60.33;;;29.40;;
23406;SDS011;11876;53.438;18.942;2023-02-28T06:06:30;56.67;;;28.02;;
23406;SDS011;11876;53.438;18.942;2023-02-28T06:09:32;42.30;;;21.23;;
23406;SDS011;11876;53.438;18.942;2023-02-28T06:12:35;59.17;;;28.70;;
23406;SDS011;11876;53.438;18.942;2023-02-28T06:15:38;60.25;;;30.08;;
23406;SDS011;11876;53.438;18.942;2023-02-28T06:18:40;45.20;;;22.33;;
23406;SDS011;11876;53.438;18.942;2023-02-28T06:21:43;71.18;;;35.65;;
23406;SDS011;11876;53.438;18.942;2023-02-28T06:24:45;78.20;;;39.90;;
23406;SDS011;11876;53.438;18.942;2023-02-28T06:27:48;129.68;;;60.08;;
23406;SDS011;11876;53.438;18.942;2023-02-28T06:30:51;141.18;;;65.05;;
23406;SDS011;11876;53.438;18.942;2023-02-28T06:33:54;116.80;;;59.50;;
23406;SDS011;11876;53.438;18.942;2023-02-28T06:36:57;82.10;;;47.45;;
23406;SDS011;11876;53.438;18.942;2023-02-28T06:40:03;92.80;;;46.92;;
23406;SDS011;11876;53.438;18.942;2023-02-28T06:43:08;98.95;;;52.85;;
23406;SDS011;11876;53.438;18.942;2023-02-28T06:46:12;90.95;;;51.85;;
23406;SDS011;11876;53.438;18.942;2023-02-28T06:49:16;90.15;;;50.92;;
23406;SDS011;11876;53.438;18.942;2023-02-28T06:52:18;93.68;;;52.30;;
23406;SDS011;11876;53.438;18.942;2023-02-28T06:55:20;90.38;;;54.67;;
23406;SDS011;11876;53.438;18.942;2023-02-28T06:58:23;73.22;;;44.60;;
23406;SDS011;11876;53.438;18.942;2023-02-28T07:01:25;71.15;;;41.85;;
23406;SDS011;11876;53.438;18.942;2023-02-28T07:04:30;70.97;;;42.25;;
23406;SDS011;11876;53.438;18.942;2023-02-28T07:07:32;74.20;;;42.38;;
23406;SDS011;11876;53.438;18.942;2023-02-28T07:10:38;67.22;;;41.33;;
23406;SDS011;11876;53.438;18.942;2023-02-28T07:13:41;64.47;;;37.03;;
23406;SDS011;11876;53.438;18.942;2023-02-28T07:16:43;58.42;;;36.60;;
23406;SDS011;11876;53.438;18.942;2023-02-28T07:19:47;64.45;;;38.10;;
23406;SDS011;11876;53.438;18.942;2023-02-28T07:22:49;53.97;;;32.80;;
23406;SDS011;11876;53.438;18.942;2023-02-28T07:25:57;55.97;;;32.30;;
23406;SDS011;11876;53.438;18.942;2023-02-28T07:29:00;49.90;;;31.23;;
23406;SDS011;11876;53.438;18.942;2023-02-28T07:32:03;55.80;;;33.03;;
23406;SDS011;11876;53.438;18.942;2023-02-28T07:35:06;58.30;;;33.57;;
23406;SDS011;11876;53.438;18.942;2023-02-28T07:38:09;47.83;;;29.57;;
23406;SDS011;11876;53.438;18.942;2023-02-28T07:41:12;44.05;;;26.90;;
23406;SDS011;11876;53.438;18.942;2023-02-28T07:44:14;38.80;;;25.30;;
23406;SDS011;11876;53.438;18.942;2023-02-28T07:47:17;40.25;;;24.75;;
23406;SDS011;11876;53.438;18.942;2023-02-28T07:50:19;42.70;;;28.25;;
23406;SDS011;11876;53.438;18.942;2023-02-28T07:53:22;60.08;;;36.22;;
23406;SDS011;11876;53.438;18.942;2023-02-28T07:56:24;72.22;;;45.50;;
23406;SDS011;11876;53.438;18.942;2023-02-28T07:59:27;64.80;;;42.28;;
23406;SDS011;11876;53.438;18.942;2023-02-28T08:02:32;70.45;;;43.83;;
23406;SDS011;11876;53.438;18.942;2023-02-28T08:05:37;63.53;;;38.83;;
23406;SDS011;11876;53.438;18.942;2023-02-28T08:08:41;52.22;;;33.67;;
23406;SDS011;11876;53.438;18.942;2023-02-28T08:11:44;47.40;;;32.33;;
23406;SDS011;11876;53.438;18.942;2023-02-28T08:14:46;45.20;;;27.65;;
23406;SDS011;11876;53.438;18.942;2023-02-28T08:17:48;40.20;;;26.52;;
23406;SDS011;11876;53.438;18.942;2023-02-28T08:20:51;46.15;;;28.45;;
23406;SDS011;11876;53.438;18.942;2023-02-28T08:23:53;47.83;;;30.52;;
23406;SDS011;11876;53.438;18.942;2023-02-28T08:26:55;61.92;;;37.40;;
23406;SDS011;11876;53.438;18.942;2023-02-28T08:29:58;57.95;;;37.95;;
23406;SDS011;11876;53.438;18.942;2023-02-28T08:33:00;50.80;;;33.30;;
23406;SDS011;11876;53.438;18.942;2023-02-28T08:36:03;46.15;;;30.08;;
23406;SDS011;11876;53.438;18.942;2023-02-28T08:39:06;34.63;;;22.60;;
23406;SDS011;11876;53.438;18.942;2023-02-28T08:42:09;23.05;;;14.00;;
23406;SDS011;11876;53.438;18.942;2023-02-28T08:45:12;31.38;;;20.50;;
23406;SDS011;11876;53.438;18.942;2023-02-28T08:51:20;40.60;;;25.25;;
23406;SDS011;11876;53.438;18.942;2023-02-28T08:54:28;39.83;;;25.33;;
23406;SDS011;11876;53.438;18.942;2023-02-28T08:57:32;44.17;;;27.98;;
23406;SDS011;11876;53.438;18.942;2023-02-28T09:00:35;46.00;;;28.33;;
23406;SDS011;11876;53.438;18.942;2023-02-28T09:03:38;38.83;;;24.03;;
23406;SDS011;11876;53.438;18.942;2023-02-28T09:06:42;38.97;;;24.23;;
23406;SDS011;11876;53.438;18.942;2023-02-28T09:09:45;45.43;;;28.63;;
23406;SDS011;11876;53.438;18.942;2023-02-28T09:12:58;41.10;;;25.70;;
23406;SDS011;11876;53.438;18.942;2023-02-28T09:16:01;48.97;;;29.30;;
23406;SDS011;11876;53.438;18.942;2023-02-28T09:22:06;48.90;;;29.15;;
23406;SDS011;11876;53.438;18.942;2023-02-28T09:25:09;48.38;;;29.88;;
23406;SDS011;11876;53.438;18.942;2023-02-28T09:28:11;46.40;;;28.33;;
23406;SDS011;11876;53.438;18.942;2023-02-28T09:31:15;49.20;;;27.83;;
23406;SDS011;11876;53.438;18.942;2023-02-28T09:34:22;45.35;;;26.20;;
23406;SDS011;11876;53.438;18.942;2023-02-28T09:37:24;34.42;;;22.15;;
23406;SDS011;11876;53.438;18.942;2023-02-28T09:40:34;24.48;;;14.32;;
23406;SDS011;11876;53.438;18.942;2023-02-28T09:43:38;19.20;;;11.00;;
23406;SDS011;11876;53.438;18.942;2023-02-28T09:46:44;12.00;;;7.60;;
23406;SDS011;11876;53.438;18.942;2023-02-28T09:49:49;18.05;;;10.73;;
23406;SDS011;11876;53.438;18.942;2023-02-28T09:52:52;20.77;;;12.15;;
23406;SDS011;11876;53.438;18.942;2023-02-28T09:55:57;8.93;;;6.50;;
23406;SDS011;11876;53.438;18.942;2023-02-28T09:59:02;13.45;;;8.77;;
23406;SDS011;11876;53.438;18.942;2023-02-28T10:05:14;14.57;;;8.23;;
23406;SDS011;11876;53.438;18.942;2023-02-28T10:08:37;9.10;;;6.90;;
23406;SDS011;11876;53.438;18.942;2023-02-28T10:11:46;12.88;;;7.38;;
23406;SDS011;11876;53.438;18.942;2023-02-28T10:14:50;10.57;;;7.22;;
23406;SDS011;11876;53.438;18.942;2023-02-28T10:17:54;13.70;;;7.53;;
23406;SDS011;11876;53.438;18.942;2023-02-28T10:21:15;16.35;;;9.23;;
23406;SDS011;11876;53.438;18.942;2023-02-28T10:24:32;15.38;;;8.57;;
23406;SDS011;11876;53.438;18.942;2023-02-28T10:27:37;15.88;;;7.85;;
23406;SDS011;11876;53.438;18.942;2023-02-28T10:30:41;11.60;;;6.70;;
23406;SDS011;11876;53.438;18.942;2023-02-28T10:33:45;11.50;;;7.60;;
23406;SDS011;11876;53.438;18.942;2023-02-28T10:36:48;16.75;;;10.38;;
23406;SDS011;11876;53.438;18.942;2023-02-28T10:39:51;12.65;;;7.55;;
23406;SDS011;11876;53.438;18.942;2023-02-28T10:49:17;16.80;;;10.80;;
23406;SDS011;11876;53.438;18.942;2023-02-28T10:52:33;15.95;;;9.80;;
23406;SDS011;11876;53.438;18.942;2023-02-28T10:55:38;16.05;;;9.90;;
23406;SDS011;11876;53.438;18.942;2023-02-28T10:58:54;18.25;;;10.93;;
23406;SDS011;11876;53.438;18.942;2023-02-28T11:01:58;17.23;;;11.00;;
23406;SDS011;11876;53.438;18.942;2023-02-28T11:05:01;16.40;;;10.70;;
23406;SDS011;11876;53.438;18.942;2023-02-28T11:08:12;20.27;;;11.95;;
23406;SDS011;11876;53.438;18.942;2023-02-28T11:11:16;21.67;;;13.80;;
23406;SDS011;11876;53.438;18.942;2023-02-28T11:14:20;19.25;;;12.75;;
23406;SDS011;11876;53.438;18.942;2023-02-28T11:17:25;18.23;;;12.15;;
23406;SDS011;11876;53.438;18.942;2023-02-28T11:20:30;19.80;;;13.25;;
23406;SDS011;11876;53.438;18.942;2023-02-28T11:23:35;17.63;;;12.25;;
23406;SDS011;11876;53.438;18.942;2023-02-28T11:26:42;23.58;;;12.43;;
23406;SDS011;11876;53.438;18.942;2023-02-28T11:29:47;18.08;;;11.02;;
23406;SDS011;11876;53.438;18.942;2023-02-28T11:32:49;18.58;;;11.57;;
23406;SDS011;11876;53.438;18.942;2023-02-28T11:35:52;13.27;;;8.40;;
23406;SDS011;11876;53.438;18.942;2023-02-28T11:39:04;13.82;;;8.32;;
23406;SDS011;11876;53.438;18.942;2023-02-28T12:01:38;7.57;;;4.63;;
23406;SDS011;11876;53.438;18.942;2023-02-28T12:19:14;5.50;;;4.32;;
23406;SDS011;11876;53.438;18.942;2023-02-28T12:22:27;8.90;;;4.65;;
23406;SDS011;11876;53.438;18.942;2023-02-28T12:32:35;8.68;;;5.30;;
23406;SDS011;11876;53.438;18.942;2023-02-28T12:35:51;10.65;;;5.53;;
23406;SDS011;11876;53.438;18.942;2023-02-28T12:39:04;9.73;;;6.07;;
23406;SDS011;11876;53.438;18.942;2023-02-28T12:42:19;12.10;;;5.68;;
23406;SDS011;11876;53.438;18.942;2023-02-28T12:45:39;6.53;;;5.15;;
23406;SDS011;11876;53.438;18.942;2023-02-28T12:48:46;7.90;;;5.47;;
23406;SDS011;11876;53.438;18.942;2023-02-28T12:51:50;7.88;;;5.35;;
23406;SDS011;11876;53.438;18.942;2023-02-28T12:54:54;9.32;;;5.65;;
23406;SDS011;11876;53.438;18.942;2023-02-28T13:11:57;6.18;;;4.50;;
23406;SDS011;11876;53.438;18.942;2023-02-28T13:15:03;5.47;;;3.70;;
23406;SDS011;11876;53.438;18.942;2023-02-28T13:18:20;6.63;;;4.32;;
23406;SDS011;11876;53.438;18.942;2023-02-28T13:21:42;9.40;;;5.63;;
23406;SDS011;11876;53.438;18.942;2023-02-28T13:24:49;10.52;;;6.03;;
23406;SDS011;11876;53.438;18.942;2023-02-28T13:27:55;5.72;;;4.13;;
23406;SDS011;11876;53.438;18.942;2023-02-28T13:34:05;5.93;;;3.77;;
23406;SDS011;11876;53.438;18.942;2023-02-28T13:40:28;7.97;;;5.22;;
23406;SDS011;11876;53.438;18.942;2023-02-28T13:47:23;12.35;;;5.35;;
23406;SDS011;11876;53.438;18.942;2023-02-28T13:53:45;8.35;;;6.20;;
23406;SDS011;11876;53.438;18.942;2023-02-28T14:07:38;12.07;;;7.23;;
23406;SDS011;11876;53.438;18.942;2023-02-28T14:10:46;11.45;;;7.90;;
23406;SDS011;11876;53.438;18.942;2023-02-28T14:13:51;14.85;;;7.65;;
23406;SDS011;11876;53.438;18.942;2023-02-28T14:16:54;12.93;;;6.88;;
23406;SDS011;11876;53.438;18.942;2023-02-28T14:19:56;11.93;;;7.40;;
23406;SDS011;11876;53.438;18.942;2023-02-28T14:29:38;7.00;;;4.30;;
23406;SDS011;11876;53.438;18.942;2023-02-28T14:33:01;5.28;;;4.70;;
23406;SDS011;11876;53.438;18.942;2023-02-28T14:39:35;8.63;;;4.47;;
23406;SDS011;11876;53.438;18.942;2023-02-28T14:42:38;6.68;;;4.28;;
23406;SDS011;11876;53.438;18.942;2023-02-28T14:45:48;7.25;;;4.72;;
23406;SDS011;11876;53.438;18.942;2023-02-28T14:48:52;8.00;;;5.55;;
23406;SDS011;11876;53.438;18.942;2023-02-28T14:52:09;8.90;;;5.60;;
23406;SDS011;11876;53.438;18.942;2023-02-28T14:55:17;9.80;;;6.30;;
23406;SDS011;11876;53.438;18.942;2023-02-28T14:58:31;12.38;;;7.95;;
23406;SDS011;11876;53.438;18.942;2023-02-28T15:01:34;10.90;;;6.63;;
23406;SDS011;11876;53.438;18.942;2023-02-28T15:04:37;8.52;;;5.53;;
23406;SDS011;11876;53.438;18.942;2023-02-28T15:07:39;9.48;;;6.25;;
23406;SDS011;11876;53.438;18.942;2023-02-28T15:14:15;12.82;;;8.18;;
23406;SDS011;11876;53.438;18.942;2023-02-28T15:17:21;12.65;;;7.00;;
23406;SDS011;11876;53.438;18.942;2023-02-28T15:20:25;9.25;;;6.22;;
23406;SDS011;11876;53.438;18.942;2023-02-28T15:23:29;11.07;;;7.00;;
23406;SDS011;11876;53.438;18.942;2023-02-28T15:29:57;13.00;;;7.45;;
23406;SDS011;11876;53.438;18.942;2023-02-28T15:33:18;12.70;;;7.70;;
23406;SDS011;11876;53.438;18.942;2023-02-28T15:36:26;17.00;;;8.30;;
23406;SDS011;11876;53.438;18.942;2023-02-28T15:39:33;13.82;;;8.82;;
23406;SDS011;11876;53.438;18.942;2023-02-28T15:42:57;18.17;;;10.48;;
23406;SDS011;11876;53.438;18.942;2023-02-28T15:46:07;41.95;;;21.65;;
23406;SDS011;11876;53.438;18.942;2023-02-28T15:49:16;43.45;;;23.05;;
23406;SDS011;11876;53.438;18.942;2023-02-28T15:52:24;41.75;;;21.08;;
23406;SDS011;11876;53.438;18.942;2023-02-28T15:55:30;53.13;;;24.52;;
23406;SDS011;11876;53.438;18.942;2023-02-28T15:58:34;61.78;;;29.95;;
23406;SDS011;11876;53.438;18.942;2023-02-28T16:01:38;53.13;;;26.38;;
23406;SDS011;11876;53.438;18.942;2023-02-28T16:08:14;112.72;;;57.83;;
23406;SDS011;11876;53.438;18.942;2023-02-28T16:11:17;149.98;;;77.53;;
23406;SDS011;11876;53.438;18.942;2023-02-28T16:14:24;119.03;;;64.90;;
23406;SDS011;11876;53.438;18.942;2023-02-28T16:17:34;72.68;;;40.88;;
23406;SDS011;11876;53.438;18.942;2023-02-28T16:20:39;45.95;;;27.70;;
23406;SDS011;11876;53.438;18.942;2023-02-28T16:23:42;51.73;;;25.50;;
23406;SDS011;11876;53.438;18.942;2023-02-28T16:26:46;56.58;;;28.05;;
23406;SDS011;11876;53.438;18.942;2023-02-28T16:29:49;62.05;;;28.92;;
23406;SDS011;11876;53.438;18.942;2023-02-28T16:32:52;56.80;;;28.90;;
23406;SDS011;11876;53.438;18.942;2023-02-28T16:35:55;51.80;;;27.05;;
23406;SDS011;11876;53.438;18.942;2023-02-28T16:38:58;59.92;;;31.80;;
23406;SDS011;11876;53.438;18.942;2023-02-28T16:42:00;52.05;;;28.85;;
23406;SDS011;11876;53.438;18.942;2023-02-28T16:45:03;85.68;;;40.78;;
23406;SDS011;11876;53.438;18.942;2023-02-28T16:48:07;72.30;;;38.13;;
23406;SDS011;11876;53.438;18.942;2023-02-28T16:51:14;129.57;;;53.88;;
23406;SDS011;11876;53.438;18.942;2023-02-28T16:57:21;36.05;;;20.25;;
23406;SDS011;11876;53.438;18.942;2023-02-28T17:00:25;35.78;;;18.15;;
23406;SDS011;11876;53.438;18.942;2023-02-28T17:03:29;52.88;;;23.00;;
23406;SDS011;11876;53.438;18.942;2023-02-28T17:06:34;62.35;;;29.73;;
23406;SDS011;11876;53.438;18.942;2023-02-28T17:09:36;68.53;;;31.83;;
23406;SDS011;11876;53.438;18.942;2023-02-28T17:12:44;55.10;;;27.63;;
23406;SDS011;11876;53.438;18.942;2023-02-28T17:15:46;49.88;;;24.65;;
23406;SDS011;11876;53.438;18.942;2023-02-28T17:18:50;37.72;;;18.60;;
23406;SDS011;11876;53.438;18.942;2023-02-28T17:21:52;119.88;;;66.55;;
23406;SDS011;11876;53.438;18.942;2023-02-28T17:24:55;119.13;;;56.72;;
23406;SDS011;11876;53.438;18.942;2023-02-28T17:28:02;74.95;;;32.67;;
23406;SDS011;11876;53.438;18.942;2023-02-28T17:31:04;48.10;;;23.77;;
23406;SDS011;11876;53.438;18.942;2023-02-28T17:34:07;33.08;;;18.30;;
23406;SDS011;11876;53.438;18.942;2023-02-28T17:37:09;24.83;;;13.23;;
23406;SDS011;11876;53.438;18.942;2023-02-28T17:40:13;26.00;;;14.52;;
23406;SDS011;11876;53.438;18.942;2023-02-28T17:43:20;28.60;;;16.13;;
23406;SDS011;11876;53.438;18.942;2023-02-28T17:46:23;29.42;;;15.63;;
23406;SDS011;11876;53.438;18.942;2023-02-28T17:49:26;27.73;;;16.98;;
23406;SDS011;11876;53.438;18.942;2023-02-28T17:52:29;32.35;;;16.52;;
23406;SDS011;11876;53.438;18.942;2023-02-28T17:55:32;26.63;;;14.75;;
23406;SDS011;11876;53.438;18.942;2023-02-28T17:58:35;41.58;;;21.45;;
23406;SDS011;11876;53.438;18.942;2023-02-28T18:01:38;40.90;;;23.23;;
23406;SDS011;11876;53.438;18.942;2023-02-28T18:04:41;42.10;;;22.95;;
23406;SDS011;11876;53.438;18.942;2023-02-28T18:07:44;42.72;;;24.33;;
23406;SDS011;11876;53.438;18.942;2023-02-28T18:10:46;49.50;;;26.92;;
23406;SDS011;11876;53.438;18.942;2023-02-28T18:13:50;64.78;;;33.33;;
23406;SDS011;11876;53.438;18.942;2023-02-28T18:16:54;66.28;;;33.15;;
23406;SDS011;11876;53.438;18.942;2023-02-28T18:23:00;56.05;;;33.38;;
23406;SDS011;11876;53.438;18.942;2023-02-28T18:26:06;32.55;;;18.42;;
23406;SDS011;11876;53.438;18.942;2023-02-28T18:29:15;31.08;;;18.50;;
23406;SDS011;11876;53.438;18.942;2023-02-28T18:32:25;35.78;;;20.15;;
23406;SDS011;11876;53.438;18.942;2023-02-28T18:35:28;34.22;;;20.85;;
23406;SDS011;11876;53.438;18.942;2023-02-28T18:38:38;40.05;;;22.30;;
23406;SDS011;11876;53.438;18.942;2023-02-28T18:41:40;37.97;;;21.65;;
23406;SDS011;11876;53.438;18.942;2023-02-28T18:44:43;41.40;;;22.45;;
23406;SDS011;11876;53.438;18.942;2023-02-28T18:47:45;42.30;;;23.30;;
23406;SDS011;11876;53.438;18.942;2023-02-28T18:50:49;41.03;;;23.65;;
23406;SDS011;11876;53.438;18.942;2023-02-28T18:53:52;39.33;;;21.70;;
23406;SDS011;11876;53.438;18.942;2023-02-28T18:56:54;36.83;;;20.85;;
23406;SDS011;11876;53.438;18.942;2023-02-28T18:59:57;34.60;;;20.80;;
23406;SDS011;11876;53.438;18.942;2023-02-28T19:02:59;38.50;;;21.45;;
23406;SDS011;11876;53.438;18.942;2023-02-28T19:06:02;42.42;;;23.45;;
23406;SDS011;11876;53.438;18.942;2023-02-28T19:09:04;38.92;;;21.58;;
23406;SDS011;11876;53.438;18.942;2023-02-28T19:12:07;36.07;;;20.30;;
23406;SDS011;11876;53.438;18.942;2023-02-28T19:15:10;36.47;;;19.88;;
23406;SDS011;11876;53.438;18.942;2023-02-28T19:18:13;36.20;;;19.55;;
23406;SDS011;11876;53.438;18.942;2023-02-28T19:21:16;37.72;;;19.70;;
23406;SDS011;11876;53.438;18.942;2023-02-28T19:24:20;35.58;;;19.55;;
23406;SDS011;11876;53.438;18.942;2023-02-28T19:27:22;36.25;;;20.27;;
23406;SDS011;11876;53.438;18.942;2023-02-28T19:30:24;32.72;;;19.33;;
23406;SDS011;11876;53.438;18.942;2023-02-28T19:33:27;31.40;;;18.88;;
23406;SDS011;11876;53.438;18.942;2023-02-28T19:36:30;34.80;;;19.20;;
23406;SDS011;11876;53.438;18.942;2023-02-28T19:39:32;40.33;;;21.15;;
23406;SDS011;11876;53.438;18.942;2023-02-28T19:42:41;49.28;;;24.95;;
23406;SDS011;11876;53.438;18.942;2023-02-28T19:45:44;43.47;;;22.67;;
23406;SDS011;11876;53.438;18.942;2023-02-28T19:48:46;45.75;;;23.55;;
23406;SDS011;11876;53.438;18.942;2023-02-28T19:51:49;58.22;;;31.10;;
23406;SDS011;11876;53.438;18.942;2023-02-28T19:54:51;48.22;;;27.63;;
23406;SDS011;11876;53.438;18.942;2023-02-28T19:57:53;52.60;;;28.92;;
23406;SDS011;11876;53.438;18.942;2023-02-28T20:00:56;42.50;;;22.83;;
23406;SDS011;11876;53.438;18.942;2023-02-28T20:03:58;43.25;;;22.58;;
23406;SDS011;11876;53.438;18.942;2023-02-28T20:07:02;42.50;;;22.52;;
23406;SDS011;11876;53.438;18.942;2023-02-28T20:10:05;44.88;;;25.00;;
23406;SDS011;11876;53.438;18.942;2023-02-28T20:13:07;46.80;;;24.70;;
23406;SDS011;11876;53.438;18.942;2023-02-28T20:16:11;51.25;;;25.33;;
23406;SDS011;11876;53.438;18.942;2023-02-28T20:19:14;52.70;;;26.13;;
23406;SDS011;11876;53.438;18.942;2023-02-28T20:22:17;37.23;;;17.83;;
23406;SDS011;11876;53.438;18.942;2023-02-28T20:25:19;41.90;;;23.08;;
23406;SDS011;11876;53.438;18.942;2023-02-28T20:28:22;43.78;;;24.05;;
23406;SDS011;11876;53.438;18.942;2023-02-28T20:31:25;50.38;;;26.48;;
23406;SDS011;11876;53.438;18.942;2023-02-28T20:34:29;47.75;;;25.23;;
23406;SDS011;11876;53.438;18.942;2023-02-28T20:37:31;46.15;;;27.00;;
23406;SDS011;11876;53.438;18.942;2023-02-28T20:40:33;50.38;;;26.15;;